sensor_id;sensor_type;location;lat;lon;timestamp;pressure;altitude;pressure_sealevel;temperature;humidity
41947;BME280;27638;42.184;24.848;2022-08-19T00:00:14;99324.09;;;26.00;52.33
41947;BME280;27638;42.184;24.848;2022-08-19T00:02:41;99321.41;;;25.85;53.46
41947;BME280;27638;42.184;24.848;2022-08-19T00:05:08;99317.06;;;26.04;53.54
41947;BME280;27638;42.184;24.848;2022-08-19T00:07:34;99298.63;;;26.01;53.36
41947;BME280;27638;42.184;24.848;2022-08-19T00:10:00;99307.00;;;26.25;52.86
41947;BME280;27638;42.184;24.848;2022-08-19T00:12:26;99305.09;;;26.35;52.14
41947;BME280;27638;42.184;24.848;2022-08-19T00:14:51;99317.03;;;26.29;52.96
41947;BME280;27638;42.184;24.848;2022-08-19T00:17:19;99308.66;;;26.11;54.10
41947;BME280;27638;42.184;24.848;2022-08-19T00:19:45;99310.53;;;26.20;53.16
41947;BME280;27638;42.184;24.848;2022-08-19T00:22:11;99304.31;;;26.15;53.79
41947;BME280;27638;42.184;24.848;2022-08-19T00:24:36;99302.41;;;26.10;53.29
41947;BME280;27638;42.184;24.848;2022-08-19T00:27:04;99304.84;;;26.06;53.45
41947;BME280;27638;42.184;24.848;2022-08-19T00:29:29;99286.38;;;26.19;52.81
41947;BME280;27638;42.184;24.848;2022-08-19T00:31:56;99286.69;;;26.02;53.22
41947;BME280;27638;42.184;24.848;2022-08-19T00:34:24;99289.94;;;25.99;52.63
41947;BME280;27638;42.184;24.848;2022-08-19T00:36:50;99292.94;;;26.02;52.89
41947;BME280;27638;42.184;24.848;2022-08-19T00:39:16;99286.69;;;26.07;52.88
41947;BME280;27638;42.184;24.848;2022-08-19T00:41:43;99285.59;;;26.03;53.06
41947;BME280;27638;42.184;24.848;2022-08-19T00:44:18;99278.53;;;26.07;53.36
41947;BME280;27638;42.184;24.848;2022-08-19T00:46:46;99283.16;;;26.12;53.52
41947;BME280;27638;42.184;24.848;2022-08-19T00:49:29;99286.66;;;26.17;53.58
41947;BME280;27638;42.184;24.848;2022-08-19T00:52:23;99281.22;;;26.17;53.39
41947;BME280;27638;42.184;24.848;2022-08-19T00:54:51;99282.59;;;26.20;52.87
41947;BME280;27638;42.184;24.848;2022-08-19T00:57:22;99281.53;;;26.11;53.75
41947;BME280;27638;42.184;24.848;2022-08-19T00:59:51;99282.63;;;26.04;53.56
41947;BME280;27638;42.184;24.848;2022-08-19T01:02:17;99284.50;;;25.89;54.11
41947;BME280;27638;42.184;24.848;2022-08-19T01:04:43;99281.81;;;25.73;54.45
41947;BME280;27638;42.184;24.848;2022-08-19T01:07:08;99281.78;;;25.63;55.74
41947;BME280;27638;42.184;24.848;2022-08-19T01:09:34;99284.50;;;25.53;55.53
41947;BME280;27638;42.184;24.848;2022-08-19T01:12:00;99285.59;;;25.47;54.18
41947;BME280;27638;42.184;24.848;2022-08-19T01:14:25;99282.59;;;25.43;54.33
41947;BME280;27638;42.184;24.848;2022-08-19T01:16:52;99284.22;;;25.39;54.17
41947;BME280;27638;42.184;24.848;2022-08-19T01:19:31;99289.09;;;25.42;53.98
41947;BME280;27638;42.184;24.848;2022-08-19T01:22:07;99287.47;;;25.57;54.81
41947;BME280;27638;42.184;24.848;2022-08-19T01:24:34;99271.22;;;25.46;53.67
41947;BME280;27638;42.184;24.848;2022-08-19T01:27:03;99301.53;;;25.18;54.83
41947;BME280;27638;42.184;24.848;2022-08-19T01:29:29;99311.91;;;24.74;56.55
41947;BME280;27638;42.184;24.848;2022-08-19T01:31:54;99308.25;;;24.43;57.60
41947;BME280;27638;42.184;24.848;2022-08-19T01:34:20;99313.34;;;24.29;57.98
41947;BME280;27638;42.184;24.848;2022-08-19T01:36:47;99322.63;;;24.06;59.17
41947;BME280;27638;42.184;24.848;2022-08-19T01:39:17;99319.34;;;23.99;59.23
41947;BME280;27638;42.184;24.848;2022-08-19T01:41:43;99319.63;;;24.03;58.97
41947;BME280;27638;42.184;24.848;2022-08-19T01:44:09;99323.06;;;23.93;59.02
41947;BME280;27638;42.184;24.848;2022-08-19T01:46:35;99322.06;;;24.04;58.96
41947;BME280;27638;42.184;24.848;2022-08-19T01:49:02;99317.50;;;24.10;58.78
41947;BME280;27638;42.184;24.848;2022-08-19T01:51:28;99323.84;;;24.26;58.33
41947;BME280;27638;42.184;24.848;2022-08-19T01:53:56;99333.44;;;24.43;58.11
41947;BME280;27638;42.184;24.848;2022-08-19T01:56:22;99325.91;;;24.56;57.95
41947;BME280;27638;42.184;24.848;2022-08-19T01:59:00;99327.03;;;24.65;57.98
41947;BME280;27638;42.184;24.848;2022-08-19T02:01:26;99328.66;;;24.66;57.13
41947;BME280;27638;42.184;24.848;2022-08-19T02:03:51;99328.19;;;24.79;57.06
41947;BME280;27638;42.184;24.848;2022-08-19T02:06:19;99325.22;;;24.80;57.82
41947;BME280;27638;42.184;24.848;2022-08-19T02:08:44;99333.34;;;24.86;57.45
41947;BME280;27638;42.184;24.848;2022-08-19T02:11:26;99328.75;;;24.86;57.72
41947;BME280;27638;42.184;24.848;2022-08-19T02:13:53;99329.03;;;24.84;57.84
41947;BME280;27638;42.184;24.848;2022-08-19T02:16:19;99329.53;;;24.76;58.17
41947;BME280;27638;42.184;24.848;2022-08-19T02:18:46;99334.19;;;24.96;57.41
41947;BME280;27638;42.184;24.848;2022-08-19T02:21:17;99329.97;;;25.05;56.54
41947;BME280;27638;42.184;24.848;2022-08-19T02:23:43;99331.47;;;24.91;57.25
41947;BME280;27638;42.184;24.848;2022-08-19T02:26:09;99339.41;;;24.98;56.89
41947;BME280;27638;42.184;24.848;2022-08-19T02:28:35;99351.28;;;24.97;56.84
41947;BME280;27638;42.184;24.848;2022-08-19T02:31:02;99351.53;;;24.95;56.85
41947;BME280;27638;42.184;24.848;2022-08-19T02:33:28;99349.88;;;24.89;56.83
41947;BME280;27638;42.184;24.848;2022-08-19T02:35:53;99355.13;;;25.01;56.92
41947;BME280;27638;42.184;24.848;2022-08-19T02:38:19;99350.28;;;25.03;56.44
41947;BME280;27638;42.184;24.848;2022-08-19T02:41:00;99348.25;;;24.88;57.20
41947;BME280;27638;42.184;24.848;2022-08-19T02:43:26;99347.41;;;24.77;57.95
41947;BME280;27638;42.184;24.848;2022-08-19T02:45:53;99357.09;;;24.63;58.10
41947;BME280;27638;42.184;24.848;2022-08-19T02:48:20;99358.44;;;24.66;58.82
41947;BME280;27638;42.184;24.848;2022-08-19T02:50:48;99362.00;;;24.71;58.64
41947;BME280;27638;42.184;24.848;2022-08-19T02:53:15;99356.19;;;24.47;58.16
41947;BME280;27638;42.184;24.848;2022-08-19T02:55:45;99368.66;;;24.48;58.04
41947;BME280;27638;42.184;24.848;2022-08-19T02:58:12;99369.91;;;24.36;58.85
41947;BME280;27638;42.184;24.848;2022-08-19T03:00:56;99375.25;;;24.26;60.47
41947;BME280;27638;42.184;24.848;2022-08-19T03:03:22;99373.69;;;24.35;60.46
41947;BME280;27638;42.184;24.848;2022-08-19T03:05:48;99375.09;;;24.42;59.72
41947;BME280;27638;42.184;24.848;2022-08-19T03:08:14;99385.84;;;24.27;60.15
41947;BME280;27638;42.184;24.848;2022-08-19T03:10:44;99380.03;;;24.13;61.04
41947;BME280;27638;42.184;24.848;2022-08-19T03:13:17;99384.91;;;24.16;61.33
41947;BME280;27638;42.184;24.848;2022-08-19T03:15:45;99370.59;;;24.21;61.47
41947;BME280;27638;42.184;24.848;2022-08-19T03:18:12;99380.97;;;24.29;60.96
41947;BME280;27638;42.184;24.848;2022-08-19T03:20:45;99393.44;;;24.30;60.60
41947;BME280;27638;42.184;24.848;2022-08-19T03:23:11;99387.47;;;24.28;59.96
41947;BME280;27638;42.184;24.848;2022-08-19T03:25:42;99393.97;;;24.32;60.44
41947;BME280;27638;42.184;24.848;2022-08-19T03:28:12;99397.69;;;24.26;60.02
41947;BME280;27638;42.184;24.848;2022-08-19T03:30:39;99402.25;;;24.20;59.62
41947;BME280;27638;42.184;24.848;2022-08-19T03:33:09;99407.56;;;24.05;59.87
41947;BME280;27638;42.184;24.848;2022-08-19T03:35:35;99401.50;;;23.93;59.68
41947;BME280;27638;42.184;24.848;2022-08-19T03:38:05;99402.75;;;23.85;59.54
41947;BME280;27638;42.184;24.848;2022-08-19T03:40:32;99400.97;;;23.69;59.91
41947;BME280;27638;42.184;24.848;2022-08-19T03:42:59;99411.28;;;23.72;59.98
41947;BME280;27638;42.184;24.848;2022-08-19T03:45:25;99406.34;;;23.64;61.66
41947;BME280;27638;42.184;24.848;2022-08-19T03:47:52;99406.63;;;23.68;59.96
41947;BME280;27638;42.184;24.848;2022-08-19T03:50:18;99409.75;;;23.81;59.50
41947;BME280;27638;42.184;24.848;2022-08-19T03:52:51;99407.50;;;23.73;59.43
41947;BME280;27638;42.184;24.848;2022-08-19T03:55:17;99406.63;;;23.68;59.40
41947;BME280;27638;42.184;24.848;2022-08-19T03:57:44;99424.78;;;23.72;59.86
41947;BME280;27638;42.184;24.848;2022-08-19T04:00:11;99384.47;;;23.66;60.66
41947;BME280;27638;42.184;24.848;2022-08-19T04:02:37;99421.84;;;24.01;59.58
41947;BME280;27638;42.184;24.848;2022-08-19T04:05:02;99420.91;;;24.17;58.73
41947;BME280;27638;42.184;24.848;2022-08-19T04:07:28;99422.31;;;24.25;58.96
41947;BME280;27638;42.184;24.848;2022-08-19T04:09:53;99415.88;;;24.31;60.12
41947;BME280;27638;42.184;24.848;2022-08-19T04:12:19;99414.78;;;24.27;59.75
41947;BME280;27638;42.184;24.848;2022-08-19T04:14:46;99417.16;;;24.23;59.83
41947;BME280;27638;42.184;24.848;2022-08-19T04:17:11;99408.75;;;24.19;59.03
41947;BME280;27638;42.184;24.848;2022-08-19T04:19:39;99418.78;;;24.24;59.09
41947;BME280;27638;42.184;24.848;2022-08-19T04:22:05;99415.53;;;24.22;60.39
41947;BME280;27638;42.184;24.848;2022-08-19T04:24:32;99418.19;;;24.17;61.04
41947;BME280;27638;42.184;24.848;2022-08-19T04:27:00;99416.31;;;24.17;61.79
41947;BME280;27638;42.184;24.848;2022-08-19T04:29:27;99424.34;;;24.39;59.53
41947;BME280;27638;42.184;24.848;2022-08-19T04:31:53;99420.84;;;24.44;59.64
41947;BME280;27638;42.184;24.848;2022-08-19T04:34:22;99424.47;;;24.60;58.81
41947;BME280;27638;42.184;24.848;2022-08-19T04:36:50;99433.75;;;24.74;58.39
41947;BME280;27638;42.184;24.848;2022-08-19T04:39:22;99425.13;;;24.77;58.52
41947;BME280;27638;42.184;24.848;2022-08-19T04:41:47;99418.88;;;24.76;58.31
41947;BME280;27638;42.184;24.848;2022-08-19T04:44:32;99427.75;;;25.04;57.96
41947;BME280;27638;42.184;24.848;2022-08-19T04:46:58;99431.28;;;25.04;58.84
41947;BME280;27638;42.184;24.848;2022-08-19T04:49:25;99421.06;;;25.27;58.13
41947;BME280;27638;42.184;24.848;2022-08-19T04:51:52;99422.44;;;25.34;57.22
41947;BME280;27638;42.184;24.848;2022-08-19T04:54:20;99421.38;;;25.45;57.88
41947;BME280;27638;42.184;24.848;2022-08-19T04:56:48;99414.03;;;25.31;58.51
41947;BME280;27638;42.184;24.848;2022-08-19T04:59:15;99424.88;;;25.36;57.32
41947;BME280;27638;42.184;24.848;2022-08-19T05:01:42;99418.75;;;25.66;56.53
41947;BME280;27638;42.184;24.848;2022-08-19T05:04:08;99422.31;;;25.87;55.33
41947;BME280;27638;42.184;24.848;2022-08-19T05:06:35;99418.81;;;26.12;54.81
41947;BME280;27638;42.184;24.848;2022-08-19T05:09:03;99422.09;;;26.34;53.56
41947;BME280;27638;42.184;24.848;2022-08-19T05:11:33;99425.88;;;26.43;53.88
41947;BME280;27638;42.184;24.848;2022-08-19T05:13:59;99423.66;;;26.65;53.20
41947;BME280;27638;42.184;24.848;2022-08-19T05:16:26;99428.50;;;26.84;52.63
41947;BME280;27638;42.184;24.848;2022-08-19T05:18:52;99426.03;;;27.08;51.39
41947;BME280;27638;42.184;24.848;2022-08-19T05:21:36;99427.38;;;27.15;51.76
41947;BME280;27638;42.184;24.848;2022-08-19T05:24:22;99422.13;;;27.29;51.63
41947;BME280;27638;42.184;24.848;2022-08-19T05:26:49;99429.69;;;27.42;50.80
41947;BME280;27638;42.184;24.848;2022-08-19T05:29:18;99417.66;;;27.53;49.60
41947;BME280;27638;42.184;24.848;2022-08-19T05:31:44;99426.00;;;27.72;49.38
41947;BME280;27638;42.184;24.848;2022-08-19T05:34:11;99432.50;;;27.76;50.37
41947;BME280;27638;42.184;24.848;2022-08-19T05:36:40;99436.66;;;28.03;50.78
41947;BME280;27638;42.184;24.848;2022-08-19T05:39:08;99427.34;;;28.09;50.06
41947;BME280;27638;42.184;24.848;2022-08-19T05:41:34;99438.91;;;28.35;48.62
41947;BME280;27638;42.184;24.848;2022-08-19T05:44:04;99421.94;;;28.43;48.74
41947;BME280;27638;42.184;24.848;2022-08-19T05:46:35;99431.28;;;28.60;48.70
41947;BME280;27638;42.184;24.848;2022-08-19T05:49:03;99435.47;;;28.53;47.07
41947;BME280;27638;42.184;24.848;2022-08-19T05:51:29;99436.34;;;28.72;46.62
41947;BME280;27638;42.184;24.848;2022-08-19T05:53:55;99434.19;;;28.98;47.04
41947;BME280;27638;42.184;24.848;2022-08-19T05:56:20;99436.25;;;29.06;46.10
41947;BME280;27638;42.184;24.848;2022-08-19T05:58:46;99436.50;;;29.10;45.52
41947;BME280;27638;42.184;24.848;2022-08-19T06:01:15;99430.22;;;29.09;45.18
41947;BME280;27638;42.184;24.848;2022-08-19T06:03:41;99440.31;;;28.85;44.58
41947;BME280;27638;42.184;24.848;2022-08-19T06:06:08;99450.06;;;28.91;44.30
41947;BME280;27638;42.184;24.848;2022-08-19T06:08:35;99449.44;;;28.99;44.01
41947;BME280;27638;42.184;24.848;2022-08-19T06:11:17;99444.75;;;29.29;43.34
41947;BME280;27638;42.184;24.848;2022-08-19T06:13:43;99446.53;;;29.38;41.64
41947;BME280;27638;42.184;24.848;2022-08-19T06:16:12;99439.72;;;29.60;41.53
41947;BME280;27638;42.184;24.848;2022-08-19T06:18:37;99439.41;;;29.80;41.03
41947;BME280;27638;42.184;24.848;2022-08-19T06:21:03;99442.88;;;30.04;40.34
41947;BME280;27638;42.184;24.848;2022-08-19T06:23:29;99446.25;;;30.34;40.22
41947;BME280;27638;42.184;24.848;2022-08-19T06:25:55;99451.09;;;30.69;39.49
41947;BME280;27638;42.184;24.848;2022-08-19T06:28:20;99442.66;;;30.52;39.67
41947;BME280;27638;42.184;24.848;2022-08-19T06:30:48;99448.47;;;30.64;39.18
41947;BME280;27638;42.184;24.848;2022-08-19T06:33:13;99447.88;;;30.95;38.15
41947;BME280;27638;42.184;24.848;2022-08-19T06:35:40;99438.78;;;30.99;38.25
41947;BME280;27638;42.184;24.848;2022-08-19T06:38:06;99445.84;;;31.14;37.71
41947;BME280;27638;42.184;24.848;2022-08-19T06:40:31;99451.31;;;31.00;37.29
41947;BME280;27638;42.184;24.848;2022-08-19T06:42:57;99445.75;;;30.92;38.84
41947;BME280;27638;42.184;24.848;2022-08-19T06:45:24;99449.59;;;31.04;37.97
41947;BME280;27638;42.184;24.848;2022-08-19T06:47:52;99437.38;;;31.29;37.36
41947;BME280;27638;42.184;24.848;2022-08-19T06:50:21;99444.38;;;31.35;36.82
41947;BME280;27638;42.184;24.848;2022-08-19T06:52:47;99435.13;;;31.45;36.42
41947;BME280;27638;42.184;24.848;2022-08-19T06:55:12;99443.06;;;31.83;36.25
41947;BME280;27638;42.184;24.848;2022-08-19T06:57:38;99450.19;;;31.70;35.04
41947;BME280;27638;42.184;24.848;2022-08-19T07:00:05;99440.81;;;31.85;35.55
41947;BME280;27638;42.184;24.848;2022-08-19T07:02:32;99439.66;;;31.99;35.09
41947;BME280;27638;42.184;24.848;2022-08-19T07:04:57;99438.94;;;32.30;34.42
41947;BME280;27638;42.184;24.848;2022-08-19T07:07:23;99436.25;;;32.38;34.26
41947;BME280;27638;42.184;24.848;2022-08-19T07:09:51;99432.97;;;32.59;34.41
41947;BME280;27638;42.184;24.848;2022-08-19T07:12:18;99423.69;;;32.68;33.65
41947;BME280;27638;42.184;24.848;2022-08-19T07:14:44;99428.81;;;32.61;34.13
41947;BME280;27638;42.184;24.848;2022-08-19T07:17:14;99441.25;;;32.67;33.87
41947;BME280;27638;42.184;24.848;2022-08-19T07:19:41;99437.81;;;32.84;33.83
41947;BME280;27638;42.184;24.848;2022-08-19T07:22:08;99425.13;;;32.66;33.79
41947;BME280;27638;42.184;24.848;2022-08-19T07:24:35;99432.72;;;32.69;33.38
41947;BME280;27638;42.184;24.848;2022-08-19T07:27:03;99428.22;;;32.73;33.85
41947;BME280;27638;42.184;24.848;2022-08-19T07:29:31;99429.50;;;33.15;33.02
41947;BME280;27638;42.184;24.848;2022-08-19T07:31:59;99425.81;;;33.20;32.73
41947;BME280;27638;42.184;24.848;2022-08-19T07:34:27;99423.81;;;33.60;32.81
41947;BME280;27638;42.184;24.848;2022-08-19T07:36:54;99425.13;;;33.62;31.73
41947;BME280;27638;42.184;24.848;2022-08-19T07:39:25;99420.28;;;33.77;32.11
41947;BME280;27638;42.184;24.848;2022-08-19T07:41:52;99421.41;;;33.67;31.11
41947;BME280;27638;42.184;24.848;2022-08-19T07:44:20;99414.94;;;33.63;31.93
41947;BME280;27638;42.184;24.848;2022-08-19T07:46:49;99415.75;;;33.81;30.85
41947;BME280;27638;42.184;24.848;2022-08-19T07:49:16;99418.19;;;33.91;31.42
41947;BME280;27638;42.184;24.848;2022-08-19T07:51:56;99412.06;;;33.94;30.83
41947;BME280;27638;42.184;24.848;2022-08-19T07:54:24;99414.97;;;33.98;31.00
41947;BME280;27638;42.184;24.848;2022-08-19T07:56:50;99410.75;;;34.00;31.28
41947;BME280;27638;42.184;24.848;2022-08-19T07:59:17;99410.59;;;34.05;30.51
41947;BME280;27638;42.184;24.848;2022-08-19T08:01:44;99400.88;;;34.08;30.90
41947;BME280;27638;42.184;24.848;2022-08-19T08:04:09;99407.16;;;34.25;31.35
41947;BME280;27638;42.184;24.848;2022-08-19T08:06:53;99409.75;;;34.22;31.04
41947;BME280;27638;42.184;24.848;2022-08-19T08:09:38;99406.47;;;34.54;30.53
41947;BME280;27638;42.184;24.848;2022-08-19T08:12:11;99409.31;;;34.75;29.85
41947;BME280;27638;42.184;24.848;2022-08-19T08:14:43;99402.97;;;34.83;29.26
41947;BME280;27638;42.184;24.848;2022-08-19T08:17:10;99406.78;;;35.00;30.04
41947;BME280;27638;42.184;24.848;2022-08-19T08:19:36;99399.03;;;34.93;29.17
41947;BME280;27638;42.184;24.848;2022-08-19T08:22:03;99401.94;;;34.97;29.65
41947;BME280;27638;42.184;24.848;2022-08-19T08:24:31;99401.00;;;34.93;30.19
41947;BME280;27638;42.184;24.848;2022-08-19T08:26:58;99393.06;;;34.91;29.91
41947;BME280;27638;42.184;24.848;2022-08-19T08:29:26;99389.78;;;34.98;29.89
41947;BME280;27638;42.184;24.848;2022-08-19T08:31:52;99391.56;;;35.02;30.47
41947;BME280;27638;42.184;24.848;2022-08-19T08:34:19;99394.59;;;34.71;30.83
41947;BME280;27638;42.184;24.848;2022-08-19T08:36:46;99390.00;;;34.93;29.76
41947;BME280;27638;42.184;24.848;2022-08-19T08:39:15;99386.63;;;34.87;30.10
41947;BME280;27638;42.184;24.848;2022-08-19T08:47:09;99384.84;;;35.12;28.98
41947;BME280;27638;42.184;24.848;2022-08-19T08:49:52;99377.63;;;35.28;28.68
41947;BME280;27638;42.184;24.848;2022-08-19T08:52:28;99378.97;;;35.51;28.63
41947;BME280;27638;42.184;24.848;2022-08-19T08:54:57;99378.50;;;35.49;27.01
41947;BME280;27638;42.184;24.848;2022-08-19T08:57:32;99380.00;;;35.80;26.99
41947;BME280;27638;42.184;24.848;2022-08-19T09:00:03;99373.78;;;35.71;27.43
41947;BME280;27638;42.184;24.848;2022-08-19T09:02:31;99378.28;;;35.55;28.39
41947;BME280;27638;42.184;24.848;2022-08-19T09:04:56;99377.19;;;35.68;28.90
41947;BME280;27638;42.184;24.848;2022-08-19T09:10:29;99359.72;;;36.18;25.94
41947;BME280;27638;42.184;24.848;2022-08-19T09:15:30;99354.38;;;36.00;26.76
41947;BME280;27638;42.184;24.848;2022-08-19T09:18:02;99349.66;;;35.89;26.51
41947;BME280;27638;42.184;24.848;2022-08-19T09:20:29;99346.03;;;35.34;28.23
41947;BME280;27638;42.184;24.848;2022-08-19T09:22:56;99353.50;;;35.55;28.37
41947;BME280;27638;42.184;24.848;2022-08-19T09:25:22;99353.84;;;35.53;28.37
41947;BME280;27638;42.184;24.848;2022-08-19T09:27:48;99348.25;;;35.62;27.40
41947;BME280;27638;42.184;24.848;2022-08-19T09:30:24;99345.09;;;35.72;27.32
41947;BME280;27638;42.184;24.848;2022-08-19T09:32:50;99344.66;;;35.49;26.74
41947;BME280;27638;42.184;24.848;2022-08-19T09:35:22;99337.78;;;35.34;27.70
41947;BME280;27638;42.184;24.848;2022-08-19T09:37:48;99337.88;;;35.17;27.96
41947;BME280;27638;42.184;24.848;2022-08-19T09:40:15;99335.59;;;34.98;28.47
41947;BME280;27638;42.184;24.848;2022-08-19T09:42:41;99334.56;;;34.82;29.32
41947;BME280;27638;42.184;24.848;2022-08-19T09:45:09;99338.84;;;34.92;28.10
41947;BME280;27638;42.184;24.848;2022-08-19T09:47:35;99324.25;;;35.00;27.97
41947;BME280;27638;42.184;24.848;2022-08-19T09:50:04;99332.22;;;34.93;28.80
41947;BME280;27638;42.184;24.848;2022-08-19T09:52:31;99316.38;;;34.89;29.31
41947;BME280;27638;42.184;24.848;2022-08-19T09:54:56;99328.13;;;34.99;29.02
41947;BME280;27638;42.184;24.848;2022-08-19T09:57:22;99325.03;;;35.00;27.01
41947;BME280;27638;42.184;24.848;2022-08-19T09:59:47;99328.19;;;34.90;27.05
41947;BME280;27638;42.184;24.848;2022-08-19T10:02:13;99320.41;;;34.92;26.78
41947;BME280;27638;42.184;24.848;2022-08-19T10:04:38;99317.78;;;34.96;26.65
41947;BME280;27638;42.184;24.848;2022-08-19T10:07:23;99312.16;;;35.13;26.84
41947;BME280;27638;42.184;24.848;2022-08-19T10:09:48;99311.63;;;35.19;27.40
41947;BME280;27638;42.184;24.848;2022-08-19T10:12:13;99308.41;;;35.17;27.70
41947;BME280;27638;42.184;24.848;2022-08-19T10:14:40;99310.28;;;35.26;26.41
41947;BME280;27638;42.184;24.848;2022-08-19T10:17:06;99302.50;;;35.28;26.57
41947;BME280;27638;42.184;24.848;2022-08-19T10:19:32;99299.56;;;35.12;26.60
41947;BME280;27638;42.184;24.848;2022-08-19T10:22:06;99286.78;;;34.86;27.31
41947;BME280;27638;42.184;24.848;2022-08-19T10:24:33;99296.94;;;34.95;27.07
41947;BME280;27638;42.184;24.848;2022-08-19T10:27:00;99290.69;;;34.85;28.36
41947;BME280;27638;42.184;24.848;2022-08-19T10:29:29;99284.72;;;34.83;27.73
41947;BME280;27638;42.184;24.848;2022-08-19T10:31:57;99285.59;;;34.96;27.51
41947;BME280;27638;42.184;24.848;2022-08-19T10:34:24;99283.91;;;34.83;27.38
41947;BME280;27638;42.184;24.848;2022-08-19T10:36:49;99286.78;;;34.86;26.87
41947;BME280;27638;42.184;24.848;2022-08-19T10:39:16;99277.59;;;34.82;26.59
41947;BME280;27638;42.184;24.848;2022-08-19T10:41:41;99281.97;;;34.75;27.91
41947;BME280;27638;42.184;24.848;2022-08-19T10:44:11;99281.72;;;34.68;27.78
41947;BME280;27638;42.184;24.848;2022-08-19T10:46:40;99281.63;;;34.85;26.35
41947;BME280;27638;42.184;24.848;2022-08-19T10:49:08;99277.66;;;34.95;26.97
41947;BME280;27638;42.184;24.848;2022-08-19T10:51:34;99271.44;;;34.85;27.79
41947;BME280;27638;42.184;24.848;2022-08-19T10:54:18;99267.94;;;34.97;27.28
41947;BME280;27638;42.184;24.848;2022-08-19T10:56:43;99264.53;;;35.00;26.07
41947;BME280;27638;42.184;24.848;2022-08-19T10:59:27;99264.78;;;34.86;25.48
41947;BME280;27638;42.184;24.848;2022-08-19T11:01:58;99271.47;;;34.77;25.55
41947;BME280;27638;42.184;24.848;2022-08-19T11:04:24;99264.16;;;34.81;26.25
41947;BME280;27638;42.184;24.848;2022-08-19T11:06:49;99263.91;;;34.95;25.55
41947;BME280;27638;42.184;24.848;2022-08-19T11:09:18;99258.94;;;34.88;25.50
41947;BME280;27638;42.184;24.848;2022-08-19T11:11:44;99258.88;;;34.97;25.31
41947;BME280;27638;42.184;24.848;2022-08-19T11:14:13;99258.97;;;34.79;26.63
41947;BME280;27638;42.184;24.848;2022-08-19T11:16:40;99247.63;;;34.89;26.98
41947;BME280;27638;42.184;24.848;2022-08-19T11:19:08;99248.00;;;35.00;26.74
41947;BME280;27638;42.184;24.848;2022-08-19T11:21:37;99240.28;;;35.14;25.86
41947;BME280;27638;42.184;24.848;2022-08-19T11:24:06;99251.81;;;35.29;25.96
41947;BME280;27638;42.184;24.848;2022-08-19T11:26:32;99253.25;;;35.35;25.40
41947;BME280;27638;42.184;24.848;2022-08-19T11:28:59;99240.88;;;35.20;24.86
41947;BME280;27638;42.184;24.848;2022-08-19T11:31:27;99243.97;;;35.18;25.00
41947;BME280;27638;42.184;24.848;2022-08-19T11:33:53;99241.03;;;35.03;26.07
41947;BME280;27638;42.184;24.848;2022-08-19T11:36:21;99242.44;;;35.09;25.20
41947;BME280;27638;42.184;24.848;2022-08-19T11:38:48;99232.44;;;35.04;25.13
41947;BME280;27638;42.184;24.848;2022-08-19T11:41:15;99237.13;;;35.25;24.22
41947;BME280;27638;42.184;24.848;2022-08-19T11:43:41;99239.34;;;35.10;24.56
41947;BME280;27638;42.184;24.848;2022-08-19T11:46:10;99233.50;;;35.12;26.18
41947;BME280;27638;42.184;24.848;2022-08-19T11:48:36;99232.97;;;35.18;25.69
41947;BME280;27638;42.184;24.848;2022-08-19T11:51:05;99228.00;;;35.33;24.86
41947;BME280;27638;42.184;24.848;2022-08-19T11:53:34;99222.09;;;35.43;24.05
41947;BME280;27638;42.184;24.848;2022-08-19T11:56:00;99221.97;;;35.39;24.28
41947;BME280;27638;42.184;24.848;2022-08-19T11:58:26;99222.50;;;35.33;24.21
41947;BME280;27638;42.184;24.848;2022-08-19T12:00:52;99226.66;;;35.18;25.62
41947;BME280;27638;42.184;24.848;2022-08-19T12:03:18;99224.78;;;35.10;25.38
41947;BME280;27638;42.184;24.848;2022-08-19T12:05:44;99209.34;;;35.17;25.99
41947;BME280;27638;42.184;24.848;2022-08-19T12:08:11;99207.94;;;35.11;25.99
41947;BME280;27638;42.184;24.848;2022-08-19T12:10:38;99208.63;;;35.08;25.29
41947;BME280;27638;42.184;24.848;2022-08-19T12:13:05;99200.38;;;35.08;25.38
41947;BME280;27638;42.184;24.848;2022-08-19T12:15:38;99206.78;;;35.12;25.94
41947;BME280;27638;42.184;24.848;2022-08-19T12:18:06;99200.69;;;35.07;25.12
41947;BME280;27638;42.184;24.848;2022-08-19T12:20:37;99197.94;;;35.07;25.90
41947;BME280;27638;42.184;24.848;2022-08-19T12:23:05;99187.47;;;35.00;26.47
41947;BME280;27638;42.184;24.848;2022-08-19T12:25:31;99190.63;;;35.11;26.20
41947;BME280;27638;42.184;24.848;2022-08-19T12:27:58;99194.31;;;35.15;26.03
41947;BME280;27638;42.184;24.848;2022-08-19T12:30:23;99189.19;;;35.26;25.73
41947;BME280;27638;42.184;24.848;2022-08-19T12:32:49;99188.94;;;35.18;26.09
41947;BME280;27638;42.184;24.848;2022-08-19T12:35:16;99186.66;;;35.20;25.19
41947;BME280;27638;42.184;24.848;2022-08-19T12:37:42;99184.81;;;35.25;24.20
41947;BME280;27638;42.184;24.848;2022-08-19T12:40:10;99179.97;;;35.09;25.52
41947;BME280;27638;42.184;24.848;2022-08-19T12:42:37;99186.41;;;35.13;26.67
41947;BME280;27638;42.184;24.848;2022-08-19T12:45:09;99176.66;;;35.16;24.89
41947;BME280;27638;42.184;24.848;2022-08-19T12:47:35;99174.66;;;35.04;25.07
41947;BME280;27638;42.184;24.848;2022-08-19T12:50:01;99179.19;;;34.88;27.67
41947;BME280;27638;42.184;24.848;2022-08-19T12:52:26;99175.88;;;34.95;25.22
41947;BME280;27638;42.184;24.848;2022-08-19T12:54:54;99177.75;;;35.03;25.41
41947;BME280;27638;42.184;24.848;2022-08-19T12:57:20;99174.19;;;35.02;25.54
41947;BME280;27638;42.184;24.848;2022-08-19T12:59:46;99172.88;;;34.87;27.04
41947;BME280;27638;42.184;24.848;2022-08-19T13:02:11;99165.22;;;34.93;26.41
41947;BME280;27638;42.184;24.848;2022-08-19T13:04:36;99164.34;;;35.01;26.04